Time;durP1;ratioP1;P1;durP2;ratioP2;P2;SDS_P1;SDS_P2;PMS_P1;PMS_P2;Temp;Humidity;BMP_temperature;BMP_pressure;BME280_temperature;BME280_humidity;BME280_pressure;Samples;Min_cycle;Max_cycle;Signal;HPM_P1;HPM_P2
2022/02/16 00:01:49;;;;;;;;;;;;;;;;;;4937506;29;19927;-75
2022/02/16 00:04:16;;;;;;;;;;;;;;;;;;4933101;29;19927;-74
2022/02/16 00:06:43;;;;;;;;;;;;;;;;;;4934850;28;19931;-75
2022/02/16 00:09:09;;;;;;;;;;;;;;;;;;4940267;28;19945;-74
2022/02/16 00:11:36;;;;;;;;;;;;;;;;;;4938330;28;19934;-74
2022/02/16 00:14:03;;;;;;;;;;;;;;;;;;4933900;29;20021;-74
2022/02/16 00:16:31;;;;;;;;;;;;;;;;;;4932654;29;19927;-75
2022/02/16 00:18:58;;;;;;;;;;;;;;;;;;4933997;29;20001;-75
2022/02/16 00:21:25;;;;;;;;;;;;;;;;;;4933767;28;20406;-74
2022/02/16 00:23:52;;;;;;;;;;;;;;;;;;4933784;29;19927;-75
2022/02/16 00:26:18;;;;;;;;;;;;;;;;;;4933912;29;19931;-75
2022/02/16 00:28:45;;;;;;;;;;;;;;;;;;4934068;29;19926;-74
2022/02/16 00:31:12;;;;;;;;;;;;;;;;;;4934158;29;19974;-74
2022/02/16 00:33:40;;;;;;;;;;;;;;;;;;4933978;29;20017;-74
2022/02/16 00:36:07;;;;;;;;;;;;;;;;;;4936184;29;19931;-74
2022/02/16 00:38:34;;;;;;;;;;;;;;;;;;4937580;29;19935;-74
2022/02/16 00:41:01;;;;;;;;;;;;;;;;;;4934123;28;19927;-75
2022/02/16 00:43:28;;;;;;;;;;;;;;;;;;4934125;29;20021;-74
2022/02/16 00:45:55;;;;;;;;;;;;;;;;;;4935322;28;19927;-74
2022/02/16 00:48:22;;;;;;;;;;;;;;;;;;4939232;29;19927;-74
2022/02/16 00:50:48;;;;;;;;;;;;;;;;;;4934589;29;19927;-74
2022/02/16 00:53:15;;;;;;;;;;;;;;;;;;4934084;29;19933;-74
2022/02/16 00:55:42;;;;;;;;;;;;;;;;;;4934868;29;19982;-75
2022/02/16 00:58:09;;;;;;;;;;;;;;;;;;4934990;29;20401;-75
2022/02/16 01:00:36;;;;;;;;;;;;;;;;;;4933865;29;19927;-73
2022/02/16 01:03:03;;;;;;;;;;;;;;;;;;4935350;29;19934;-73
2022/02/16 01:05:30;;;;;;;;;;;;;;;;;;4933173;29;19950;-73
2022/02/16 01:07:57;;;;;;;;;;;;;;;;;;4941911;29;19927;-74
2022/02/16 01:10:24;;;;;;;;;;;;;;;;;;4931859;29;19927;-74
2022/02/16 01:12:51;;;;;;;;;;;;;;;;;;4931597;29;19933;-73
2022/02/16 01:15:18;;;;;;;;;;;;;;;;;;4932829;29;19934;-74
2022/02/16 01:17:45;;;;;;;;;;;;;;;;;;4933793;29;20302;-73
2022/02/16 01:20:12;;;;;;;;;;;;;;;;;;4933184;29;19933;-73
2022/02/16 01:22:39;;;;;;;;;;;;;;;;;;4930890;28;19933;-73
2022/02/16 01:25:06;;;;;;;;;;;;;;;;;;4934197;28;19927;-73
2022/02/16 01:27:33;;;;;;;;;;;;;;;;;;4934963;28;19983;-75
2022/02/16 01:30:00;;;;;;;;;;;;;;;;;;4932792;28;19927;-73
2022/02/16 01:32:27;;;;;;;;;;;;;;;;;;4933927;29;20052;-73
2022/02/16 01:34:54;;;;;;;;;;;;;;;;;;4935338;28;20322;-74
2022/02/16 01:37:21;;;;;;;;;;;;;;;;;;4933090;28;19934;-74
2022/02/16 01:39:48;;;;;;;;;;;;;;;;;;4930509;29;19926;-74
2022/02/16 01:42:15;;;;;;;;;;;;;;;;;;4937564;29;19933;-74
2022/02/16 01:44:42;;;;;;;;;;;;;;;;;;4931539;29;19931;-74
2022/02/16 01:47:09;;;;;;;;;;;;;;;;;;4935680;28;19927;-74
2022/02/16 01:49:35;;;;;;;;;;;;;;;;;;4932644;29;19934;-74
2022/02/16 01:52:02;;;;;;;;;;;;;;;;;;4936618;29;20453;-74
2022/02/16 01:54:29;;;;;;;;;;;;;;;;;;4934121;29;20390;-74
2022/02/16 01:56:56;;;;;;;;;;;;;;;;;;4938120;29;19927;-74
2022/02/16 01:59:23;;;;;;;;;;;;;;;;;;4932002;29;19931;-74
2022/02/16 02:01:50;;;;;;;;;;;;;;;;;;4940121;29;19927;-75
2022/02/16 02:04:17;;;;;;;;;;;;;;;;;;4931967;29;19927;-75
2022/02/16 02:06:44;;;;;;;;;;;;;;;;;;4934775;28;19935;-75
2022/02/16 02:09:11;;;;;;;;;;;;;;;;;;4959272;23;19926;-66
2022/02/16 02:11:38;;;;;;;;;;;;;;;;;;4951286;28;19926;-70
2022/02/16 02:14:05;;;;;;;;;;;;;;;;;;4955194;28;20393;-70
2022/02/16 02:16:32;;;;;;;;;;;;;;;;;;4953756;28;19927;-70
2022/02/16 02:18:59;;;;;;;;;;;;;;;;;;4952514;28;19974;-69
2022/02/16 02:21:25;;;;;;;;;;;;;;;;;;4952343;28;19926;-69
2022/02/16 02:23:52;;;;;;;;;;;;;;;;;;4951990;28;19993;-69
2022/02/16 02:26:19;;;;;;;;;;;;;;;;;;4960509;28;19926;-70
2022/02/16 02:28:46;;;;;;;;;;;;;;;;;;4953135;28;20693;-70
2022/02/16 02:31:13;;;;;;;;;;;;;;;;;;4955957;28;19945;-70
2022/02/16 02:33:40;;;;;;;;;;;;;;;;;;4951186;28;20305;-69
2022/02/16 02:36:07;;;;;;;;;;;;;;;;;;4957820;28;19927;-70
2022/02/16 02:38:34;;;;;;;;;;;;;;;;;;4957825;28;19933;-69
2022/02/16 02:41:01;;;;;;;;;;;;;;;;;;4959188;28;19927;-69
2022/02/16 02:43:27;;;;;;;;;;;;;;;;;;4958196;28;19926;-69
2022/02/16 02:45:54;;;;;;;;;;;;;;;;;;4957304;28;19927;-69
2022/02/16 02:48:21;;;;;;;;;;;;;;;;;;4956030;28;19933;-68
2022/02/16 02:50:48;;;;;;;;;;;;;;;;;;4955289;28;19926;-69
2022/02/16 02:53:15;;;;;;;;;;;;;;;;;;4956847;28;19926;-68
2022/02/16 02:55:42;;;;;;;;;;;;;;;;;;4958278;28;20401;-68
2022/02/16 02:58:09;;;;;;;;;;;;;;;;;;4955252;28;19933;-69
2022/02/16 03:00:36;;;;;;;;;;;;;;;;;;4962080;28;19926;-68
2022/02/16 03:03:03;;;;;;;;;;;;;;;;;;4956873;28;19927;-68
2022/02/16 03:05:30;;;;;;;;;;;;;;;;;;4955529;28;19938;-68
2022/02/16 03:07:56;;;;;;;;;;;;;;;;;;4954565;28;20377;-68
2022/02/16 03:10:23;;;;;;;;;;;;;;;;;;4959728;28;19934;-69
2022/02/16 03:12:50;;;;;;;;;;;;;;;;;;4955001;28;19933;-68
2022/02/16 03:15:17;;;;;;;;;;;;;;;;;;4957520;28;19926;-69
2022/02/16 03:17:44;;;;;;;;;;;;;;;;;;4959677;28;20295;-69
2022/02/16 03:20:11;;;;;;;;;;;;;;;;;;4959855;28;19927;-69
2022/02/16 03:22:38;;;;;;;;;;;;;;;;;;4957399;28;19937;-69
2022/02/16 03:25:05;;;;;;;;;;;;;;;;;;4958115;28;19954;-69
2022/02/16 03:27:32;;;;;;;;;;;;;;;;;;4959998;28;19926;-69
2022/02/16 03:29:59;;;;;;;;;;;;;;;;;;4958970;28;19997;-70
2022/02/16 03:32:26;;;;;;;;;;;;;;;;;;4957284;28;19934;-69
2022/02/16 03:34:52;;;;;;;;;;;;;;;;;;4953077;28;19933;-69
2022/02/16 03:37:19;;;;;;;;;;;;;;;;;;4954239;28;19934;-69
2022/02/16 03:39:47;;;;;;;;;;;;;;;;;;4956562;28;19926;-70
2022/02/16 03:42:14;;;;;;;;;;;;;;;;;;4957458;28;19926;-69
2022/02/16 03:44:41;;;;;;;;;;;;;;;;;;4954033;28;20730;-69
2022/02/16 03:47:08;;;;;;;;;;;;;;;;;;4950117;28;19927;-69
2022/02/16 03:49:34;;;;;;;;;;;;;;;;;;4958397;28;20393;-69
2022/02/16 03:52:01;;;;;;;;;;;;;;;;;;4957474;28;20078;-69
2022/02/16 03:54:28;;;;;;;;;;;;;;;;;;4952960;28;19930;-68
2022/02/16 03:56:55;;;;;;;;;;;;;;;;;;4958310;28;20393;-69
2022/02/16 03:59:22;;;;;;;;;;;;;;;;;;4958231;28;19934;-69
2022/02/16 04:01:49;;;;;;;;;;;;;;;;;;4964281;28;19980;-70
2022/02/16 04:04:16;;;;;;;;;;;;;;;;;;4956987;28;19931;-69
2022/02/16 04:06:43;;;;;;;;;;;;;;;;;;4957101;28;19926;-70
2022/02/16 04:09:11;;;;;;;;;;;;;;;;;;4958712;28;19957;-68
2022/02/16 04:11:38;;;;;;;;;;;;;;;;;;4961510;28;19930;-70
2022/02/16 04:14:05;;;;;;;;;;;;;;;;;;4956769;28;21661;-70
2022/02/16 04:16:32;;;;;;;;;;;;;;;;;;4961558;28;19926;-69
2022/02/16 04:18:59;;;;;;;;;;;;;;;;;;4957941;28;19926;-69
2022/02/16 04:21:26;;;;;;;;;;;;;;;;;;4958292;28;19927;-69
2022/02/16 04:23:53;;;;;;;;;;;;;;;;;;4955774;28;19982;-69
2022/02/16 04:26:20;;;;;;;;;;;;;;;;;;4957847;28;19926;-70
2022/02/16 04:28:47;;;;;;;;;;;;;;;;;;4959648;28;20023;-69
2022/02/16 04:31:14;;;;;;;;;;;;;;;;;;4956382;28;19933;-69
2022/02/16 04:33:41;;;;;;;;;;;;;;;;;;4956829;28;20297;-69
2022/02/16 04:36:07;;;;;;;;;;;;;;;;;;4953384;28;20005;-69
2022/02/16 04:38:34;;;;;;;;;;;;;;;;;;4957199;28;19926;-69
2022/02/16 04:41:01;;;;;;;;;;;;;;;;;;4958351;28;19930;-70
2022/02/16 04:43:29;;;;;;;;;;;;;;;;;;4958789;28;19926;-70
2022/02/16 04:45:56;;;;;;;;;;;;;;;;;;4952274;28;19980;-69
2022/02/16 04:48:23;;;;;;;;;;;;;;;;;;4951680;28;19933;-70
2022/02/16 04:50:50;;;;;;;;;;;;;;;;;;4953573;28;19933;-69
2022/02/16 04:53:17;;;;;;;;;;;;;;;;;;4961269;28;19926;-69
2022/02/16 04:55:44;;;;;;;;;;;;;;;;;;4951622;28;19930;-70
2022/02/16 04:58:10;;;;;;;;;;;;;;;;;;4958173;28;19934;-70
2022/02/16 05:00:37;;;;;;;;;;;;;;;;;;4960692;28;19926;-69
2022/02/16 05:03:04;;;;;;;;;;;;;;;;;;4954732;28;19990;-69
2022/02/16 05:05:31;;;;;;;;;;;;;;;;;;4952688;28;19926;-69
2022/02/16 05:07:58;;;;;;;;;;;;;;;;;;4956612;28;20039;-69
2022/02/16 05:10:25;;;;;;;;;;;;;;;;;;4959673;28;19927;-70
2022/02/16 05:12:52;;;;;;;;;;;;;;;;;;4953142;28;19949;-69
2022/02/16 05:15:19;;;;;;;;;;;;;;;;;;4954269;28;20391;-69
2022/02/16 05:17:46;;;;;;;;;;;;;;;;;;4956055;28;19927;-70
2022/02/16 05:20:13;;;;;;;;;;;;;;;;;;4962831;28;19929;-69
2022/02/16 05:22:40;;;;;;;;;;;;;;;;;;4958931;28;19926;-70
2022/02/16 05:25:07;;;;;;;;;;;;;;;;;;4950074;28;19934;-69
2022/02/16 05:27:33;;;;;;;;;;;;;;;;;;4952953;29;19985;-69
2022/02/16 05:30:00;;;;;;;;;;;;;;;;;;4955257;28;19930;-69
2022/02/16 05:32:27;;;;;;;;;;;;;;;;;;4954752;28;19933;-69
2022/02/16 05:34:54;;;;;;;;;;;;;;;;;;4951846;28;19934;-70
2022/02/16 05:37:21;;;;;;;;;;;;;;;;;;4951918;28;20494;-68
2022/02/16 05:39:48;;;;;;;;;;;;;;;;;;4952800;28;19926;-68
2022/02/16 05:42:15;;;;;;;;;;;;;;;;;;4953130;28;19926;-70
2022/02/16 05:44:42;;;;;;;;;;;;;;;;;;4957413;28;19937;-70
2022/02/16 05:47:09;;;;;;;;;;;;;;;;;;4951439;28;19927;-70
2022/02/16 05:49:35;;;;;;;;;;;;;;;;;;4957864;28;19926;-70
2022/02/16 05:52:02;;;;;;;;;;;;;;;;;;4954858;28;19930;-69
2022/02/16 05:54:29;;;;;;;;;;;;;;;;;;4950574;28;19934;-68
2022/02/16 05:56:56;;;;;;;;;;;;;;;;;;4950026;28;20298;-70
2022/02/16 05:59:23;;;;;;;;;;;;;;;;;;4951881;28;19933;-70
2022/02/16 06:01:50;;;;;;;;;;;;;;;;;;4956050;28;19926;-70
2022/02/16 06:04:17;;;;;;;;;;;;;;;;;;4948700;28;20346;-70
2022/02/16 06:06:44;;;;;;;;;;;;;;;;;;4957788;28;19934;-70
2022/02/16 06:09:11;;;;;;;;;;;;;;;;;;4953041;28;19926;-71
2022/02/16 06:11:38;;;;;;;;;;;;;;;;;;4947024;28;19937;-70
2022/02/16 06:14:07;;;;;;;;;;;;;;;;;;4951185;28;19926;-71
2022/02/16 06:16:34;;;;;;;;;;;;;;;;;;4950898;28;20013;-69
2022/02/16 06:19:00;;;;;;;;;;;;;;;;;;4951135;28;19974;-70
2022/02/16 06:21:27;;;;;;;;;;;;;;;;;;4954253;28;19937;-70
2022/02/16 06:23:54;;;;;;;;;;;;;;;;;;4952805;28;19926;-70
2022/02/16 06:26:21;;;;;;;;;;;;;;;;;;4950995;28;19931;-70
2022/02/16 06:28:48;;;;;;;;;;;;;;;;;;4953099;28;20309;-70
2022/02/16 06:31:15;;;;;;;;;;;;;;;;;;4956782;28;19933;-69
2022/02/16 06:33:42;;;;;;;;;;;;;;;;;;4958115;28;19938;-70
2022/02/16 06:36:09;;;;;;;;;;;;;;;;;;4949890;28;19927;-70
2022/02/16 06:38:36;;;;;;;;;;;;;;;;;;4953608;28;19927;-70
2022/02/16 06:41:03;;;;;;;;;;;;;;;;;;4941862;28;20416;-70
2022/02/16 06:43:31;;;;;;;;;;;;;;;;;;4934474;28;19937;-69
2022/02/16 06:45:58;;;;;;;;;;;;;;;;;;4942064;28;19926;-69
2022/02/16 06:48:24;;;;;;;;;;;;;;;;;;4928798;28;19926;-70
2022/02/16 06:50:51;;;;;;;;;;;;;;;;;;4945457;28;19927;-70
2022/02/16 06:53:18;;;;;;;;;;;;;;;;;;4933721;28;19934;-69
2022/02/16 06:55:45;;;;;;;;;;;;;;;;;;4944025;28;19927;-71
2022/02/16 06:58:12;;;;;;;;;;;;;;;;;;4945370;28;19934;-68
2022/02/16 07:00:40;;;;;;;;;;;;;;;;;;4945551;28;20285;-70
2022/02/16 07:03:07;;;;;;;;;;;;;;;;;;4951743;28;20294;-70
2022/02/16 07:05:34;;;;;;;;;;;;;;;;;;4949637;29;19931;-69
2022/02/16 07:08:01;;;;;;;;;;;;;;;;;;4950657;28;19937;-69
2022/02/16 07:10:28;;;;;;;;;;;;;;;;;;4947924;28;20282;-69
2022/02/16 07:12:55;;;;;;;;;;;;;;;;;;4944843;28;19934;-71
2022/02/16 07:15:22;;;;;;;;;;;;;;;;;;4950291;29;20310;-69
2022/02/16 07:17:49;;;;;;;;;;;;;;;;;;4948030;28;20018;-69
2022/02/16 07:20:16;;;;;;;;;;;;;;;;;;4948854;28;19927;-70
2022/02/16 07:22:42;;;;;;;;;;;;;;;;;;4952429;28;19927;-71
2022/02/16 07:25:09;;;;;;;;;;;;;;;;;;4953979;29;20417;-70
2022/02/16 07:27:36;;;;;;;;;;;;;;;;;;4953477;28;20301;-70
2022/02/16 07:30:03;;;;;;;;;;;;;;;;;;4949292;28;19927;-70
2022/02/16 07:32:30;;;;;;;;;;;;;;;;;;4955344;28;20369;-69
2022/02/16 07:34:57;;;;;;;;;;;;;;;;;;4951698;29;19933;-69
2022/02/16 07:37:24;;;;;;;;;;;;;;;;;;4957030;28;19930;-69
2022/02/16 07:39:51;;;;;;;;;;;;;;;;;;4951699;28;19937;-69
2022/02/16 07:42:18;;;;;;;;;;;;;;;;;;4955934;28;19933;-69
2022/02/16 07:44:45;;;;;;;;;;;;;;;;;;4946598;29;20406;-69
2022/02/16 07:47:12;;;;;;;;;;;;;;;;;;4955853;28;19981;-69
2022/02/16 07:49:39;;;;;;;;;;;;;;;;;;4953366;28;20309;-70
2022/02/16 07:52:06;;;;;;;;;;;;;;;;;;4947650;28;19933;-69
2022/02/16 07:54:33;;;;;;;;;;;;;;;;;;4939760;29;19927;-68
2022/02/16 07:57:00;;;;;;;;;;;;;;;;;;4950000;28;20297;-69
2022/02/16 07:59:28;;;;;;;;;;;;;;;;;;4951372;28;20565;-70
2022/02/16 08:01:56;;;;;;;;;;;;;;;;;;4946833;28;20371;-69
2022/02/16 08:04:23;;;;;;;;;;;;;;;;;;4945508;28;19997;-69
2022/02/16 08:06:50;;;;;;;;;;;;;;;;;;4942340;28;19926;-69
2022/02/16 08:09:17;;;;;;;;;;;;;;;;;;4974201;23;19933;-64
2022/02/16 08:11:44;;;;;;;;;;;;;;;;;;4971440;28;19930;-65
2022/02/16 08:14:11;;;;;;;;;;;;;;;;;;4970742;28;19941;-64
2022/02/16 08:16:38;;;;;;;;;;;;;;;;;;4967879;28;19927;-65
2022/02/16 08:19:05;;;;;;;;;;;;;;;;;;4963701;28;19926;-66
2022/02/16 08:21:32;;;;;;;;;;;;;;;;;;4968335;28;19941;-64
2022/02/16 08:23:59;;;;;;;;;;;;;;;;;;4958015;28;19930;-66
2022/02/16 08:26:26;;;;;;;;;;;;;;;;;;4971099;28;19926;-64
2022/02/16 08:28:53;;;;;;;;;;;;;;;;;;4965574;28;20393;-64
2022/02/16 08:31:20;;;;;;;;;;;;;;;;;;4969887;28;19949;-66
2022/02/16 08:33:46;;;;;;;;;;;;;;;;;;4969140;28;19942;-64
2022/02/16 08:36:13;;;;;;;;;;;;;;;;;;4964500;28;19933;-64
2022/02/16 08:38:40;;;;;;;;;;;;;;;;;;4969927;28;19926;-64
2022/02/16 08:41:07;;;;;;;;;;;;;;;;;;4968264;28;19941;-64
2022/02/16 08:43:34;;;;;;;;;;;;;;;;;;4968500;28;19926;-65
2022/02/16 08:46:01;;;;;;;;;;;;;;;;;;4966834;28;19930;-65
2022/02/16 08:48:28;;;;;;;;;;;;;;;;;;4968223;28;19933;-64
2022/02/16 08:50:55;;;;;;;;;;;;;;;;;;4958986;28;20337;-64
2022/02/16 08:53:22;;;;;;;;;;;;;;;;;;4957447;28;19926;-65
2022/02/16 08:55:49;;;;;;;;;;;;;;;;;;4959508;28;19934;-64
2022/02/16 08:58:16;;;;;;;;;;;;;;;;;;4963052;28;19981;-65
2022/02/16 09:00:43;;;;;;;;;;;;;;;;;;4961508;28;20021;-65
2022/02/16 09:03:10;;;;;;;;;;;;;;;;;;4963622;28;19931;-64
2022/02/16 09:05:37;;;;;;;;;;;;;;;;;;4967680;28;19926;-66
2022/02/16 09:08:04;;;;;;;;;;;;;;;;;;4965080;28;19930;-66
2022/02/16 09:10:31;;;;;;;;;;;;;;;;;;4953975;28;19934;-64
2022/02/16 09:12:58;;;;;;;;;;;;;;;;;;4966476;28;19930;-64
2022/02/16 09:15:26;;;;;;;;;;;;;;;;;;4969062;28;19937;-65
2022/02/16 09:17:53;;;;;;;;;;;;;;;;;;4969791;28;19976;-64
2022/02/16 09:20:20;;;;;;;;;;;;;;;;;;4961344;28;19934;-64
2022/02/16 09:22:47;;;;;;;;;;;;;;;;;;4970687;28;20290;-64
2022/02/16 09:25:14;;;;;;;;;;;;;;;;;;4956220;28;20329;-65
2022/02/16 09:27:41;;;;;;;;;;;;;;;;;;4959850;28;19930;-64
2022/02/16 09:30:08;;;;;;;;;;;;;;;;;;4967807;28;20404;-62
2022/02/16 09:32:35;;;;;;;;;;;;;;;;;;4963515;28;19934;-65
2022/02/16 09:35:02;;;;;;;;;;;;;;;;;;4962200;28;19937;-64
2022/02/16 09:37:29;;;;;;;;;;;;;;;;;;4965501;28;19981;-65
2022/02/16 09:39:56;;;;;;;;;;;;;;;;;;4964314;28;19942;-65
2022/02/16 09:42:23;;;;;;;;;;;;;;;;;;4965331;28;19933;-65
2022/02/16 09:44:50;;;;;;;;;;;;;;;;;;4967534;28;19926;-65
2022/02/16 09:47:17;;;;;;;;;;;;;;;;;;4969118;28;19933;-64
2022/02/16 09:49:44;;;;;;;;;;;;;;;;;;4966774;28;19937;-66
2022/02/16 09:52:11;;;;;;;;;;;;;;;;;;4965017;28;19934;-66
2022/02/16 09:54:38;;;;;;;;;;;;;;;;;;4962027;28;19930;-64
2022/02/16 09:57:05;;;;;;;;;;;;;;;;;;4954818;28;19926;-64
2022/02/16 09:59:33;;;;;;;;;;;;;;;;;;4969690;28;19936;-65
2022/02/16 10:02:01;;;;;;;;;;;;;;;;;;4962625;28;19986;-66
2022/02/16 10:04:28;;;;;;;;;;;;;;;;;;4965583;28;19926;-65
2022/02/16 10:06:55;;;;;;;;;;;;;;;;;;4961338;28;19933;-66
2022/02/16 10:09:22;;;;;;;;;;;;;;;;;;4957417;28;20598;-64
2022/02/16 10:11:49;;;;;;;;;;;;;;;;;;4961792;28;20029;-64
2022/02/16 10:14:16;;;;;;;;;;;;;;;;;;4962428;28;19940;-65
2022/02/16 10:16:43;;;;;;;;;;;;;;;;;;4959561;28;20024;-65
2022/02/16 10:19:10;;;;;;;;;;;;;;;;;;4960445;28;19934;-66
2022/02/16 10:21:37;;;;;;;;;;;;;;;;;;4957877;28;19936;-65
2022/02/16 10:24:04;;;;;;;;;;;;;;;;;;4960959;28;19926;-65
2022/02/16 10:26:32;;;;;;;;;;;;;;;;;;4969201;28;19933;-63
2022/02/16 10:29:00;;;;;;;;;;;;;;;;;;4959663;28;19981;-64
2022/02/16 10:31:27;;;;;;;;;;;;;;;;;;4957772;28;20409;-64
2022/02/16 10:33:55;;;;;;;;;;;;;;;;;;4965488;28;19930;-66
2022/02/16 10:36:23;;;;;;;;;;;;;;;;;;4966233;28;19973;-65
2022/02/16 10:38:51;;;;;;;;;;;;;;;;;;4963258;28;19988;-64
2022/02/16 10:41:18;;;;;;;;;;;;;;;;;;4965305;28;19926;-66
2022/02/16 10:43:45;;;;;;;;;;;;;;;;;;4964215;28;20289;-65
2022/02/16 10:46:12;;;;;;;;;;;;;;;;;;4964997;28;19934;-65
2022/02/16 10:48:39;;;;;;;;;;;;;;;;;;4963893;28;20305;-65
2022/02/16 10:51:07;;;;;;;;;;;;;;;;;;4964804;28;19926;-64
2022/02/16 10:53:34;;;;;;;;;;;;;;;;;;4959513;28;19973;-65
2022/02/16 10:56:06;;;;;;;;;;;;;;;;;;4955892;28;19930;-65
2022/02/16 10:58:33;;;;;;;;;;;;;;;;;;4964874;28;19926;-65
2022/02/16 11:01:01;;;;;;;;;;;;;;;;;;4967804;28;20387;-66
2022/02/16 11:03:28;;;;;;;;;;;;;;;;;;4968342;28;19926;-65
2022/02/16 11:05:55;;;;;;;;;;;;;;;;;;4966439;28;19927;-64
2022/02/16 11:08:22;;;;;;;;;;;;;;;;;;4965436;28;19985;-66
2022/02/16 11:10:49;;;;;;;;;;;;;;;;;;4963185;28;20405;-65
2022/02/16 11:13:16;;;;;;;;;;;;;;;;;;4962691;28;19934;-64
2022/02/16 11:15:43;;;;;;;;;;;;;;;;;;4965778;28;20404;-66
2022/02/16 11:18:10;;;;;;;;;;;;;;;;;;4965144;28;19932;-64
2022/02/16 11:20:37;;;;;;;;;;;;;;;;;;4960662;28;19933;-66
2022/02/16 11:23:05;;;;;;;;;;;;;;;;;;4965377;28;19926;-66
2022/02/16 11:25:32;;;;;;;;;;;;;;;;;;4968700;28;20460;-66
2022/02/16 11:28:00;;;;;;;;;;;;;;;;;;4962853;28;19926;-64
2022/02/16 11:30:27;;;;;;;;;;;;;;;;;;4968162;28;19969;-64
2022/02/16 11:32:54;;;;;;;;;;;;;;;;;;4965363;28;20408;-65
2022/02/16 11:35:23;;;;;;;;;;;;;;;;;;4969284;28;19981;-66
2022/02/16 11:37:50;;;;;;;;;;;;;;;;;;4963919;28;19926;-66
2022/02/16 11:40:17;;;;;;;;;;;;;;;;;;4969550;28;20283;-65
2022/02/16 11:42:44;;;;;;;;;;;;;;;;;;4966438;28;20302;-65
2022/02/16 11:45:11;;;;;;;;;;;;;;;;;;4966888;28;20305;-65
2022/02/16 11:47:39;;;;;;;;;;;;;;;;;;4961942;28;19930;-65
2022/02/16 11:50:06;;;;;;;;;;;;;;;;;;4965471;28;20039;-65
2022/02/16 11:52:34;;;;;;;;;;;;;;;;;;4959983;28;19940;-65
2022/02/16 11:55:01;;;;;;;;;;;;;;;;;;4968955;28;19930;-64
2022/02/16 11:57:28;;;;;;;;;;;;;;;;;;4953272;28;19926;-65
2022/02/16 11:59:55;;;;;;;;;;;;;;;;;;4966233;28;19926;-65
2022/02/16 12:02:22;;;;;;;;;;;;;;;;;;4971567;28;20456;-66
2022/02/16 12:04:49;;;;;;;;;;;;;;;;;;4967600;28;19926;-66
2022/02/16 12:07:16;;;;;;;;;;;;;;;;;;4965427;28;19941;-65
2022/02/16 12:09:43;;;;;;;;;;;;;;;;;;4965617;28;20020;-65
2022/02/16 12:12:10;;;;;;;;;;;;;;;;;;4963568;28;19957;-66
2022/02/16 12:14:37;;;;;;;;;;;;;;;;;;4963264;28;19942;-66
2022/02/16 12:17:04;;;;;;;;;;;;;;;;;;4964524;28;20002;-66
2022/02/16 12:19:31;;;;;;;;;;;;;;;;;;4962844;28;21776;-65
2022/02/16 12:21:59;;;;;;;;;;;;;;;;;;4963077;28;19926;-65
2022/02/16 12:24:26;;;;;;;;;;;;;;;;;;4964631;28;19933;-68
2022/02/16 12:26:55;;;;;;;;;;;;;;;;;;4958333;28;19982;-67
2022/02/16 12:29:22;;;;;;;;;;;;;;;;;;4964207;28;19953;-66
2022/02/16 12:31:49;;;;;;;;;;;;;;;;;;4959339;28;19938;-66
2022/02/16 12:34:16;;;;;;;;;;;;;;;;;;4959910;28;19938;-64
2022/02/16 12:36:43;;;;;;;;;;;;;;;;;;4953600;28;19934;-64
2022/02/16 12:39:10;;;;;;;;;;;;;;;;;;4959866;28;20321;-64
2022/02/16 12:41:37;;;;;;;;;;;;;;;;;;4961733;28;19957;-65
2022/02/16 12:44:04;;;;;;;;;;;;;;;;;;4962009;28;19934;-67
2022/02/16 12:46:32;;;;;;;;;;;;;;;;;;4961816;28;20016;-66
2022/02/16 12:48:59;;;;;;;;;;;;;;;;;;4963768;28;19996;-66
2022/02/16 12:51:26;;;;;;;;;;;;;;;;;;4958992;28;19962;-66
2022/02/16 12:53:53;;;;;;;;;;;;;;;;;;4958576;28;19937;-66
2022/02/16 12:56:20;;;;;;;;;;;;;;;;;;4954607;28;19926;-66
2022/02/16 12:58:47;;;;;;;;;;;;;;;;;;4953091;28;20299;-65
2022/02/16 13:01:15;;;;;;;;;;;;;;;;;;4968049;28;19926;-64
2022/02/16 13:03:42;;;;;;;;;;;;;;;;;;4964982;28;19961;-65
2022/02/16 13:06:09;;;;;;;;;;;;;;;;;;4964030;28;19936;-66
2022/02/16 13:08:38;;;;;;;;;;;;;;;;;;4965484;28;19948;-66
2022/02/16 13:11:05;;;;;;;;;;;;;;;;;;4966165;28;20534;-64
2022/02/16 13:13:32;;;;;;;;;;;;;;;;;;4959954;28;20013;-66
2022/02/16 13:15:59;;;;;;;;;;;;;;;;;;4960260;28;19941;-64
2022/02/16 13:18:26;;;;;;;;;;;;;;;;;;4965069;28;20306;-65
2022/02/16 13:20:53;;;;;;;;;;;;;;;;;;4967870;28;19969;-65
2022/02/16 13:23:20;;;;;;;;;;;;;;;;;;4964439;28;19930;-65
2022/02/16 13:25:48;;;;;;;;;;;;;;;;;;4969195;28;19933;-64
2022/02/16 13:28:18;;;;;;;;;;;;;;;;;;4966438;28;19933;-64
2022/02/16 13:30:45;;;;;;;;;;;;;;;;;;4957921;28;20340;-64
2022/02/16 13:33:12;;;;;;;;;;;;;;;;;;4959464;28;19926;-65
2022/02/16 13:35:39;;;;;;;;;;;;;;;;;;4966145;28;19985;-65
2022/02/16 13:38:07;;;;;;;;;;;;;;;;;;4968078;28;19996;-64
2022/02/16 13:40:34;;;;;;;;;;;;;;;;;;4962536;28;20410;-65
2022/02/16 13:43:00;;;;;;;;;;;;;;;;;;4961550;28;19946;-65
2022/02/16 13:45:27;;;;;;;;;;;;;;;;;;4966007;28;20190;-65
2022/02/16 13:47:54;;;;;;;;;;;;;;;;;;4962915;28;19934;-65
2022/02/16 13:50:21;;;;;;;;;;;;;;;;;;4960676;28;19926;-64
2022/02/16 13:52:48;;;;;;;;;;;;;;;;;;4961748;28;20358;-65
2022/02/16 13:55:15;;;;;;;;;;;;;;;;;;4961976;28;20013;-64
2022/02/16 13:57:42;;;;;;;;;;;;;;;;;;4963957;28;19926;-64
2022/02/16 14:00:12;;;;;;;;;;;;;;;;;;4955680;28;21333;-64
2022/02/16 14:02:39;;;;;;;;;;;;;;;;;;4958875;28;19926;-65
2022/02/16 14:05:06;;;;;;;;;;;;;;;;;;4962389;28;20215;-64
2022/02/16 14:07:32;;;;;;;;;;;;;;;;;;4961306;28;20421;-64
2022/02/16 14:09:59;;;;;;;;;;;;;;;;;;4974802;23;19930;-69
2022/02/16 14:12:26;;;;;;;;;;;;;;;;;;4961596;28;19930;-69
2022/02/16 14:14:53;;;;;;;;;;;;;;;;;;4956707;28;19931;-70
2022/02/16 14:17:20;;;;;;;;;;;;;;;;;;4960232;28;20571;-70
2022/02/16 14:19:47;;;;;;;;;;;;;;;;;;4965794;28;19941;-69
2022/02/16 14:22:15;;;;;;;;;;;;;;;;;;4966259;28;19934;-71
2022/02/16 14:24:42;;;;;;;;;;;;;;;;;;4965381;28;20360;-70
2022/02/16 14:27:10;;;;;;;;;;;;;;;;;;4963752;28;20163;-70
2022/02/16 14:29:37;;;;;;;;;;;;;;;;;;4961083;28;19926;-70
2022/02/16 14:32:04;;;;;;;;;;;;;;;;;;4970728;28;19935;-70
2022/02/16 14:34:31;;;;;;;;;;;;;;;;;;4966938;28;19937;-71
2022/02/16 14:36:58;;;;;;;;;;;;;;;;;;4965807;28;19931;-69
2022/02/16 14:39:25;;;;;;;;;;;;;;;;;;4967642;28;19926;-69
2022/02/16 14:41:52;;;;;;;;;;;;;;;;;;4968534;28;19930;-70
2022/02/16 14:44:19;;;;;;;;;;;;;;;;;;4965379;28;19937;-69
2022/02/16 14:46:46;;;;;;;;;;;;;;;;;;4962027;28;20421;-69
2022/02/16 14:49:13;;;;;;;;;;;;;;;;;;4960500;28;20800;-71
2022/02/16 14:51:41;;;;;;;;;;;;;;;;;;4966338;28;19969;-71
2022/02/16 14:54:08;;;;;;;;;;;;;;;;;;4967560;28;19930;-70
2022/02/16 14:56:35;;;;;;;;;;;;;;;;;;4960555;28;19936;-71
2022/02/16 14:59:02;;;;;;;;;;;;;;;;;;4958453;28;19926;-71
2022/02/16 15:01:29;;;;;;;;;;;;;;;;;;4960497;28;19933;-71
2022/02/16 15:03:58;;;;;;;;;;;;;;;;;;4959787;28;19930;-72
2022/02/16 15:06:25;;;;;;;;;;;;;;;;;;4969526;28;19973;-70
2022/02/16 15:08:52;;;;;;;;;;;;;;;;;;4957871;28;19941;-71
2022/02/16 15:11:19;;;;;;;;;;;;;;;;;;4968689;28;19926;-70
2022/02/16 15:13:46;;;;;;;;;;;;;;;;;;4964185;28;19930;-71
2022/02/16 15:16:13;;;;;;;;;;;;;;;;;;4964902;28;20646;-71
2022/02/16 15:18:40;;;;;;;;;;;;;;;;;;4964555;28;19926;-71
2022/02/16 15:21:06;;;;;;;;;;;;;;;;;;4967028;28;20393;-70
2022/02/16 15:23:33;;;;;;;;;;;;;;;;;;4965805;28;19933;-71
2022/02/16 15:26:01;;;;;;;;;;;;;;;;;;4962963;28;19926;-70
2022/02/16 15:28:29;;;;;;;;;;;;;;;;;;4962715;28;19930;-70
2022/02/16 15:30:56;;;;;;;;;;;;;;;;;;4968189;28;20416;-71
2022/02/16 15:33:23;;;;;;;;;;;;;;;;;;4966164;28;19933;-72
2022/02/16 15:35:51;;;;;;;;;;;;;;;;;;4968305;28;20013;-69
2022/02/16 15:38:17;;;;;;;;;;;;;;;;;;4969272;28;19937;-69
2022/02/16 15:40:44;;;;;;;;;;;;;;;;;;4964590;28;20396;-72
2022/02/16 15:43:11;;;;;;;;;;;;;;;;;;4960814;28;19945;-70
2022/02/16 15:45:38;;;;;;;;;;;;;;;;;;4961107;28;19931;-73
2022/02/16 15:48:05;;;;;;;;;;;;;;;;;;4958274;28;20302;-72
2022/02/16 15:50:32;;;;;;;;;;;;;;;;;;4965826;28;19926;-73
2022/02/16 15:52:59;;;;;;;;;;;;;;;;;;4961642;28;19930;-72
2022/02/16 15:55:26;;;;;;;;;;;;;;;;;;4956685;28;19939;-71
2022/02/16 15:57:55;;;;;;;;;;;;;;;;;;4961568;28;20435;-71
2022/02/16 16:00:21;;;;;;;;;;;;;;;;;;4967497;28;19926;-70
2022/02/16 16:02:48;;;;;;;;;;;;;;;;;;4963952;28;20302;-70
2022/02/16 16:05:15;;;;;;;;;;;;;;;;;;4963250;28;19948;-69
2022/02/16 16:07:42;;;;;;;;;;;;;;;;;;4962819;28;19926;-71
2022/02/16 16:10:09;;;;;;;;;;;;;;;;;;4964404;28;20005;-69
2022/02/16 16:12:36;;;;;;;;;;;;;;;;;;4968830;28;19985;-71
2022/02/16 16:15:03;;;;;;;;;;;;;;;;;;4967081;28;19933;-72
2022/02/16 16:17:30;;;;;;;;;;;;;;;;;;4966352;28;19926;-71
2022/02/16 16:19:57;;;;;;;;;;;;;;;;;;4973756;28;19926;-71
2022/02/16 16:22:24;;;;;;;;;;;;;;;;;;4968301;28;19930;-68
2022/02/16 16:24:52;;;;;;;;;;;;;;;;;;4968853;28;19926;-70
2022/02/16 16:27:19;;;;;;;;;;;;;;;;;;4967283;28;19926;-71
2022/02/16 16:29:46;;;;;;;;;;;;;;;;;;4966424;28;19930;-70
2022/02/16 16:32:13;;;;;;;;;;;;;;;;;;4962310;28;20424;-72
2022/02/16 16:34:40;;;;;;;;;;;;;;;;;;4970761;28;20394;-71
2022/02/16 16:37:07;;;;;;;;;;;;;;;;;;4969978;28;19933;-71
2022/02/16 16:39:34;;;;;;;;;;;;;;;;;;4971101;28;20406;-70
2022/02/16 16:42:01;;;;;;;;;;;;;;;;;;4963498;28;19930;-70
2022/02/16 16:44:28;;;;;;;;;;;;;;;;;;4969353;28;20029;-71